sensor_id;sensor_type;location;lat;lon;timestamp;P1;durP1;ratioP1;P2;durP2;ratioP2
5058;SDS011;2548;52.050;11.036;2024-02-26T00:02:06;5.32;;;4.50;;
5058;SDS011;2548;52.050;11.036;2024-02-26T00:04:33;8.40;;;5.50;;
5058;SDS011;2548;52.050;11.036;2024-02-26T00:07:02;17.88;;;7.22;;
5058;SDS011;2548;52.050;11.036;2024-02-26T00:09:29;5.65;;;5.15;;
5058;SDS011;2548;52.050;11.036;2024-02-26T00:11:57;4.63;;;4.20;;
5058;SDS011;2548;52.050;11.036;2024-02-26T00:14:25;6.78;;;4.47;;
5058;SDS011;2548;52.050;11.036;2024-02-26T00:16:52;7.10;;;5.30;;
5058;SDS011;2548;52.050;11.036;2024-02-26T00:19:21;7.55;;;5.20;;
5058;SDS011;2548;52.050;11.036;2024-02-26T00:21:49;6.10;;;4.47;;
5058;SDS011;2548;52.050;11.036;2024-02-26T00:24:17;7.30;;;4.88;;
5058;SDS011;2548;52.050;11.036;2024-02-26T00:26:44;9.02;;;5.53;;
5058;SDS011;2548;52.050;11.036;2024-02-26T00:29:12;8.63;;;5.30;;
5058;SDS011;2548;52.050;11.036;2024-02-26T00:31:39;5.03;;;4.50;;
5058;SDS011;2548;52.050;11.036;2024-02-26T00:34:07;4.95;;;4.53;;
5058;SDS011;2548;52.050;11.036;2024-02-26T00:36:36;5.72;;;5.13;;
5058;SDS011;2548;52.050;11.036;2024-02-26T00:39:03;5.18;;;4.78;;
5058;SDS011;2548;52.050;11.036;2024-02-26T00:41:32;11.60;;;4.88;;
5058;SDS011;2548;52.050;11.036;2024-02-26T00:43:59;4.32;;;4.03;;
5058;SDS011;2548;52.050;11.036;2024-02-26T00:46:27;6.15;;;4.75;;
5058;SDS011;2548;52.050;11.036;2024-02-26T00:48:55;5.60;;;4.75;;
5058;SDS011;2548;52.050;11.036;2024-02-26T00:51:22;7.18;;;4.28;;
5058;SDS011;2548;52.050;11.036;2024-02-26T00:53:51;7.93;;;4.78;;
5058;SDS011;2548;52.050;11.036;2024-02-26T00:56:19;8.43;;;5.70;;
5058;SDS011;2548;52.050;11.036;2024-02-26T00:58:48;9.60;;;6.20;;
5058;SDS011;2548;52.050;11.036;2024-02-26T01:01:16;8.93;;;5.90;;
5058;SDS011;2548;52.050;11.036;2024-02-26T01:03:43;9.77;;;6.50;;
5058;SDS011;2548;52.050;11.036;2024-02-26T01:06:11;10.73;;;6.32;;
5058;SDS011;2548;52.050;11.036;2024-02-26T01:08:38;8.27;;;6.03;;
5058;SDS011;2548;52.050;11.036;2024-02-26T01:11:07;10.23;;;6.20;;
5058;SDS011;2548;52.050;11.036;2024-02-26T01:13:35;9.23;;;5.40;;
5058;SDS011;2548;52.050;11.036;2024-02-26T01:16:03;11.75;;;6.63;;
5058;SDS011;2548;52.050;11.036;2024-02-26T01:18:31;6.68;;;5.30;;
5058;SDS011;2548;52.050;11.036;2024-02-26T01:20:59;11.77;;;6.13;;
5058;SDS011;2548;52.050;11.036;2024-02-26T01:23:26;10.25;;;6.18;;
5058;SDS011;2548;52.050;11.036;2024-02-26T01:25:54;15.95;;;6.53;;
5058;SDS011;2548;52.050;11.036;2024-02-26T01:28:23;7.82;;;5.85;;
5058;SDS011;2548;52.050;11.036;2024-02-26T01:30:50;7.47;;;6.60;;
5058;SDS011;2548;52.050;11.036;2024-02-26T01:33:18;10.20;;;6.20;;
5058;SDS011;2548;52.050;11.036;2024-02-26T01:35:46;11.38;;;6.38;;
5058;SDS011;2548;52.050;11.036;2024-02-26T01:38:13;6.50;;;5.07;;
5058;SDS011;2548;52.050;11.036;2024-02-26T01:40:41;6.10;;;5.00;;
5058;SDS011;2548;52.050;11.036;2024-02-26T01:43:09;7.93;;;6.00;;
5058;SDS011;2548;52.050;11.036;2024-02-26T01:45:37;6.25;;;5.68;;
5058;SDS011;2548;52.050;11.036;2024-02-26T01:48:06;5.97;;;5.35;;
5058;SDS011;2548;52.050;11.036;2024-02-26T01:50:36;7.18;;;5.00;;
5058;SDS011;2548;52.050;11.036;2024-02-26T01:53:04;7.90;;;6.10;;
5058;SDS011;2548;52.050;11.036;2024-02-26T01:55:33;7.18;;;5.60;;
5058;SDS011;2548;52.050;11.036;2024-02-26T01:58:01;7.15;;;4.70;;
5058;SDS011;2548;52.050;11.036;2024-02-26T02:00:29;5.32;;;4.88;;
5058;SDS011;2548;52.050;11.036;2024-02-26T02:02:58;6.88;;;5.75;;
5058;SDS011;2548;52.050;11.036;2024-02-26T02:05:26;6.10;;;5.50;;
5058;SDS011;2548;52.050;11.036;2024-02-26T02:07:55;7.28;;;5.65;;
5058;SDS011;2548;52.050;11.036;2024-02-26T02:10:22;9.07;;;4.93;;
5058;SDS011;2548;52.050;11.036;2024-02-26T02:12:51;13.52;;;8.48;;
5058;SDS011;2548;52.050;11.036;2024-02-26T02:15:19;18.95;;;9.55;;
5058;SDS011;2548;52.050;11.036;2024-02-26T02:17:47;16.45;;;9.38;;
5058;SDS011;2548;52.050;11.036;2024-02-26T02:20:17;12.95;;;8.85;;
5058;SDS011;2548;52.050;11.036;2024-02-26T02:22:47;19.15;;;8.25;;
5058;SDS011;2548;52.050;11.036;2024-02-26T02:25:14;13.80;;;7.53;;
5058;SDS011;2548;52.050;11.036;2024-02-26T02:27:42;10.90;;;7.40;;
5058;SDS011;2548;52.050;11.036;2024-02-26T02:30:10;10.63;;;7.38;;
5058;SDS011;2548;52.050;11.036;2024-02-26T02:32:39;16.02;;;7.20;;
5058;SDS011;2548;52.050;11.036;2024-02-26T02:35:07;8.30;;;6.50;;
5058;SDS011;2548;52.050;11.036;2024-02-26T02:37:35;12.63;;;7.90;;
5058;SDS011;2548;52.050;11.036;2024-02-26T02:40:05;14.25;;;8.35;;
5058;SDS011;2548;52.050;11.036;2024-02-26T02:42:34;13.30;;;8.35;;
5058;SDS011;2548;52.050;11.036;2024-02-26T02:45:01;11.00;;;8.63;;
5058;SDS011;2548;52.050;11.036;2024-02-26T02:47:29;12.48;;;8.98;;
5058;SDS011;2548;52.050;11.036;2024-02-26T02:49:57;13.18;;;7.90;;
5058;SDS011;2548;52.050;11.036;2024-02-26T02:52:25;14.10;;;7.20;;
5058;SDS011;2548;52.050;11.036;2024-02-26T02:54:52;11.48;;;7.18;;
5058;SDS011;2548;52.050;11.036;2024-02-26T02:57:21;18.75;;;8.77;;
5058;SDS011;2548;52.050;11.036;2024-02-26T02:59:49;9.75;;;8.23;;
5058;SDS011;2548;52.050;11.036;2024-02-26T03:02:17;15.05;;;7.28;;
5058;SDS011;2548;52.050;11.036;2024-02-26T03:04:44;9.35;;;6.97;;
5058;SDS011;2548;52.050;11.036;2024-02-26T03:07:12;6.93;;;6.18;;
5058;SDS011;2548;52.050;11.036;2024-02-26T03:09:39;11.00;;;7.20;;
5058;SDS011;2548;52.050;11.036;2024-02-26T03:12:07;7.97;;;6.28;;
5058;SDS011;2548;52.050;11.036;2024-02-26T03:14:37;11.35;;;7.97;;
5058;SDS011;2548;52.050;11.036;2024-02-26T03:17:04;21.67;;;8.35;;
5058;SDS011;2548;52.050;11.036;2024-02-26T03:19:32;22.42;;;10.70;;
5058;SDS011;2548;52.050;11.036;2024-02-26T03:22:00;21.55;;;10.23;;
5058;SDS011;2548;52.050;11.036;2024-02-26T03:24:28;16.40;;;10.10;;
5058;SDS011;2548;52.050;11.036;2024-02-26T03:26:56;16.08;;;9.85;;
5058;SDS011;2548;52.050;11.036;2024-02-26T03:29:24;12.60;;;8.02;;
5058;SDS011;2548;52.050;11.036;2024-02-26T03:31:53;11.45;;;8.48;;
5058;SDS011;2548;52.050;11.036;2024-02-26T03:34:20;9.50;;;7.15;;
5058;SDS011;2548;52.050;11.036;2024-02-26T03:36:48;7.57;;;6.75;;
5058;SDS011;2548;52.050;11.036;2024-02-26T03:39:15;15.50;;;7.82;;
5058;SDS011;2548;52.050;11.036;2024-02-26T03:41:43;8.25;;;6.90;;
5058;SDS011;2548;52.050;11.036;2024-02-26T03:44:10;10.52;;;7.63;;
5058;SDS011;2548;52.050;11.036;2024-02-26T03:46:38;10.63;;;6.95;;
5058;SDS011;2548;52.050;11.036;2024-02-26T03:49:09;7.15;;;6.45;;
5058;SDS011;2548;52.050;11.036;2024-02-26T03:51:37;7.00;;;6.38;;
5058;SDS011;2548;52.050;11.036;2024-02-26T03:54:05;6.70;;;6.05;;
5058;SDS011;2548;52.050;11.036;2024-02-26T03:56:32;7.55;;;6.85;;
5058;SDS011;2548;52.050;11.036;2024-02-26T03:58:59;9.20;;;7.60;;
5058;SDS011;2548;52.050;11.036;2024-02-26T04:01:28;11.65;;;8.23;;
5058;SDS011;2548;52.050;11.036;2024-02-26T04:03:55;9.18;;;7.95;;
5058;SDS011;2548;52.050;11.036;2024-02-26T04:06:24;7.13;;;6.28;;
5058;SDS011;2548;52.050;11.036;2024-02-26T04:08:52;8.63;;;6.72;;
5058;SDS011;2548;52.050;11.036;2024-02-26T04:11:19;6.93;;;6.35;;
5058;SDS011;2548;52.050;11.036;2024-02-26T04:13:47;10.52;;;7.70;;
5058;SDS011;2548;52.050;11.036;2024-02-26T04:16:18;14.20;;;7.25;;
5058;SDS011;2548;52.050;11.036;2024-02-26T04:18:45;6.80;;;6.18;;
5058;SDS011;2548;52.050;11.036;2024-02-26T04:21:13;5.97;;;5.55;;
5058;SDS011;2548;52.050;11.036;2024-02-26T04:23:42;6.63;;;5.80;;
5058;SDS011;2548;52.050;11.036;2024-02-26T04:26:09;6.47;;;5.93;;
5058;SDS011;2548;52.050;11.036;2024-02-26T04:28:38;6.93;;;6.20;;
5058;SDS011;2548;52.050;11.036;2024-02-26T04:31:06;6.68;;;6.05;;
5058;SDS011;2548;52.050;11.036;2024-02-26T04:33:34;6.03;;;5.47;;
5058;SDS011;2548;52.050;11.036;2024-02-26T04:36:01;6.70;;;6.10;;
5058;SDS011;2548;52.050;11.036;2024-02-26T04:38:29;7.03;;;5.68;;
5058;SDS011;2548;52.050;11.036;2024-02-26T04:40:58;8.02;;;6.00;;
5058;SDS011;2548;52.050;11.036;2024-02-26T04:43:26;6.50;;;5.90;;
5058;SDS011;2548;52.050;11.036;2024-02-26T04:45:54;8.05;;;5.80;;
5058;SDS011;2548;52.050;11.036;2024-02-26T04:48:22;7.88;;;5.32;;
5058;SDS011;2548;52.050;11.036;2024-02-26T04:50:50;5.38;;;4.97;;
5058;SDS011;2548;52.050;11.036;2024-02-26T04:53:19;5.78;;;5.28;;
5058;SDS011;2548;52.050;11.036;2024-02-26T04:55:47;6.40;;;5.85;;
5058;SDS011;2548;52.050;11.036;2024-02-26T04:58:16;6.25;;;4.93;;
5058;SDS011;2548;52.050;11.036;2024-02-26T05:00:43;5.72;;;5.22;;
5058;SDS011;2548;52.050;11.036;2024-02-26T05:03:11;7.43;;;6.70;;
5058;SDS011;2548;52.050;11.036;2024-02-26T05:05:41;6.35;;;5.78;;
5058;SDS011;2548;52.050;11.036;2024-02-26T05:08:09;6.53;;;4.97;;
5058;SDS011;2548;52.050;11.036;2024-02-26T05:10:37;6.05;;;5.53;;
5058;SDS011;2548;52.050;11.036;2024-02-26T05:13:07;5.85;;;5.32;;
5058;SDS011;2548;52.050;11.036;2024-02-26T05:15:36;5.40;;;4.90;;
5058;SDS011;2548;52.050;11.036;2024-02-26T05:18:04;6.90;;;6.25;;
5058;SDS011;2548;52.050;11.036;2024-02-26T05:20:33;7.10;;;6.50;;
5058;SDS011;2548;52.050;11.036;2024-02-26T05:23:01;6.25;;;5.68;;
5058;SDS011;2548;52.050;11.036;2024-02-26T05:25:30;6.50;;;6.00;;
5058;SDS011;2548;52.050;11.036;2024-02-26T05:27:58;11.07;;;5.80;;
5058;SDS011;2548;52.050;11.036;2024-02-26T06:01:19;6.03;;;4.90;;
5058;SDS011;2548;52.050;11.036;2024-02-26T06:03:47;9.45;;;5.80;;
5058;SDS011;2548;52.050;11.036;2024-02-26T06:06:14;6.80;;;6.10;;
5058;SDS011;2548;52.050;11.036;2024-02-26T06:08:42;7.35;;;6.13;;
5058;SDS011;2548;52.050;11.036;2024-02-26T06:11:10;6.75;;;6.20;;
5058;SDS011;2548;52.050;11.036;2024-02-26T06:13:38;6.20;;;5.60;;
5058;SDS011;2548;52.050;11.036;2024-02-26T06:16:07;5.93;;;5.40;;
5058;SDS011;2548;52.050;11.036;2024-02-26T06:18:36;5.40;;;4.95;;
5058;SDS011;2548;52.050;11.036;2024-02-26T06:21:04;5.72;;;5.32;;
5058;SDS011;2548;52.050;11.036;2024-02-26T06:23:35;5.75;;;5.32;;
5058;SDS011;2548;52.050;11.036;2024-02-26T06:26:03;5.85;;;5.38;;
5058;SDS011;2548;52.050;11.036;2024-02-26T06:28:31;6.03;;;5.43;;
5058;SDS011;2548;52.050;11.036;2024-02-26T06:31:01;6.75;;;6.05;;
5058;SDS011;2548;52.050;11.036;2024-02-26T06:33:29;4.85;;;4.45;;
5058;SDS011;2548;52.050;11.036;2024-02-26T06:35:58;7.18;;;5.68;;
5058;SDS011;2548;52.050;11.036;2024-02-26T06:38:26;10.70;;;6.20;;
5058;SDS011;2548;52.050;11.036;2024-02-26T06:40:53;6.25;;;5.28;;
5058;SDS011;2548;52.050;11.036;2024-02-26T06:43:21;6.40;;;5.80;;
5058;SDS011;2548;52.050;11.036;2024-02-26T06:45:48;8.45;;;5.82;;
5058;SDS011;2548;52.050;11.036;2024-02-26T06:48:16;10.60;;;5.10;;
5058;SDS011;2548;52.050;11.036;2024-02-26T06:50:44;6.10;;;5.53;;
5058;SDS011;2548;52.050;11.036;2024-02-26T06:53:13;8.48;;;5.82;;
5058;SDS011;2548;52.050;11.036;2024-02-26T06:55:42;7.45;;;6.80;;
5058;SDS011;2548;52.050;11.036;2024-02-26T06:58:09;10.80;;;5.65;;
5058;SDS011;2548;52.050;11.036;2024-02-26T07:00:37;8.48;;;7.60;;
5058;SDS011;2548;52.050;11.036;2024-02-26T07:03:04;8.00;;;6.80;;
5058;SDS011;2548;52.050;11.036;2024-02-26T07:05:35;10.50;;;8.45;;
5058;SDS011;2548;52.050;11.036;2024-02-26T07:08:02;7.90;;;7.20;;
5058;SDS011;2548;52.050;11.036;2024-02-26T07:10:32;7.60;;;6.97;;
5058;SDS011;2548;52.050;11.036;2024-02-26T07:12:59;8.32;;;7.30;;
5058;SDS011;2548;52.050;11.036;2024-02-26T07:15:27;10.27;;;9.20;;
5058;SDS011;2548;52.050;11.036;2024-02-26T07:17:55;9.32;;;8.52;;
5058;SDS011;2548;52.050;11.036;2024-02-26T07:20:23;9.20;;;8.30;;
5058;SDS011;2548;52.050;11.036;2024-02-26T07:22:52;9.15;;;8.30;;
5058;SDS011;2548;52.050;11.036;2024-02-26T07:25:19;8.70;;;7.90;;
5058;SDS011;2548;52.050;11.036;2024-02-26T07:27:48;8.65;;;7.85;;
5058;SDS011;2548;52.050;11.036;2024-02-26T07:30:16;8.52;;;7.68;;
5058;SDS011;2548;52.050;11.036;2024-02-26T07:32:44;11.07;;;7.97;;
5058;SDS011;2548;52.050;11.036;2024-02-26T07:35:11;8.55;;;7.75;;
5058;SDS011;2548;52.050;11.036;2024-02-26T07:37:39;8.70;;;7.90;;
5058;SDS011;2548;52.050;11.036;2024-02-26T07:40:07;9.90;;;9.00;;
5058;SDS011;2548;52.050;11.036;2024-02-26T07:42:37;9.35;;;8.13;;
5058;SDS011;2548;52.050;11.036;2024-02-26T07:45:06;15.07;;;7.78;;
5058;SDS011;2548;52.050;11.036;2024-02-26T07:47:34;9.05;;;8.25;;
5058;SDS011;2548;52.050;11.036;2024-02-26T07:50:06;15.25;;;8.00;;
5058;SDS011;2548;52.050;11.036;2024-02-26T07:52:34;10.13;;;9.00;;
5058;SDS011;2548;52.050;11.036;2024-02-26T07:55:02;11.23;;;10.20;;
5058;SDS011;2548;52.050;11.036;2024-02-26T07:57:31;10.40;;;9.40;;
5058;SDS011;2548;52.050;11.036;2024-02-26T07:59:59;10.70;;;9.70;;
5058;SDS011;2548;52.050;11.036;2024-02-26T08:02:31;10.32;;;9.32;;
5058;SDS011;2548;52.050;11.036;2024-02-26T08:04:59;9.90;;;8.90;;
5058;SDS011;2548;52.050;11.036;2024-02-26T08:07:28;9.75;;;7.88;;
5058;SDS011;2548;52.050;11.036;2024-02-26T08:09:55;8.73;;;7.82;;
5058;SDS011;2548;52.050;11.036;2024-02-26T08:12:23;12.57;;;8.02;;
5058;SDS011;2548;52.050;11.036;2024-02-26T08:14:51;8.63;;;7.90;;
5058;SDS011;2548;52.050;11.036;2024-02-26T08:17:19;22.08;;;15.23;;
5058;SDS011;2548;52.050;11.036;2024-02-26T08:19:49;15.43;;;11.63;;
5058;SDS011;2548;52.050;11.036;2024-02-26T08:22:16;12.07;;;10.85;;
5058;SDS011;2548;52.050;11.036;2024-02-26T08:24:44;16.15;;;11.88;;
5058;SDS011;2548;52.050;11.036;2024-02-26T08:27:12;14.90;;;13.27;;
5058;SDS011;2548;52.050;11.036;2024-02-26T08:29:42;20.10;;;16.17;;
5058;SDS011;2548;52.050;11.036;2024-02-26T08:32:09;22.15;;;17.33;;
5058;SDS011;2548;52.050;11.036;2024-02-26T08:34:37;24.30;;;14.95;;
5058;SDS011;2548;52.050;11.036;2024-02-26T08:37:06;16.60;;;13.68;;
5058;SDS011;2548;52.050;11.036;2024-02-26T08:39:34;13.45;;;10.05;;
5058;SDS011;2548;52.050;11.036;2024-02-26T08:42:01;11.43;;;9.38;;
5058;SDS011;2548;52.050;11.036;2024-02-26T08:44:29;10.88;;;9.48;;
5058;SDS011;2548;52.050;11.036;2024-02-26T08:46:56;13.98;;;7.43;;
5058;SDS011;2548;52.050;11.036;2024-02-26T08:49:24;10.00;;;9.00;;
5058;SDS011;2548;52.050;11.036;2024-02-26T08:51:52;12.02;;;8.88;;
5058;SDS011;2548;52.050;11.036;2024-02-26T08:54:21;9.25;;;8.45;;
5058;SDS011;2548;52.050;11.036;2024-02-26T08:56:50;8.57;;;7.78;;
5058;SDS011;2548;52.050;11.036;2024-02-26T08:59:17;7.88;;;7.20;;
5058;SDS011;2548;52.050;11.036;2024-02-26T09:01:48;7.15;;;6.55;;
5058;SDS011;2548;52.050;11.036;2024-02-26T09:04:15;6.28;;;5.78;;
5058;SDS011;2548;52.050;11.036;2024-02-26T09:06:43;7.00;;;6.50;;
5058;SDS011;2548;52.050;11.036;2024-02-26T09:09:11;6.38;;;5.93;;
5058;SDS011;2548;52.050;11.036;2024-02-26T09:11:41;6.93;;;6.25;;
5058;SDS011;2548;52.050;11.036;2024-02-26T09:14:09;6.35;;;5.85;;
5058;SDS011;2548;52.050;11.036;2024-02-26T09:16:37;8.30;;;6.53;;
5058;SDS011;2548;52.050;11.036;2024-02-26T09:19:04;7.65;;;6.90;;
5058;SDS011;2548;52.050;11.036;2024-02-26T09:21:32;9.38;;;8.18;;
5058;SDS011;2548;52.050;11.036;2024-02-26T09:23:59;12.38;;;6.13;;
5058;SDS011;2548;52.050;11.036;2024-02-26T09:26:27;6.65;;;6.07;;
5058;SDS011;2548;52.050;11.036;2024-02-26T09:28:56;5.90;;;5.40;;
5058;SDS011;2548;52.050;11.036;2024-02-26T09:31:24;5.30;;;4.80;;
5058;SDS011;2548;52.050;11.036;2024-02-26T09:33:52;5.30;;;4.80;;
5058;SDS011;2548;52.050;11.036;2024-02-26T09:36:19;6.00;;;5.07;;
5058;SDS011;2548;52.050;11.036;2024-02-26T09:38:47;5.50;;;5.00;;
5058;SDS011;2548;52.050;11.036;2024-02-26T09:41:15;5.40;;;4.65;;
5058;SDS011;2548;52.050;11.036;2024-02-26T09:43:43;9.68;;;4.40;;
5058;SDS011;2548;52.050;11.036;2024-02-26T09:46:13;4.82;;;4.43;;
5058;SDS011;2548;52.050;11.036;2024-02-26T09:48:43;4.95;;;4.65;;
5058;SDS011;2548;52.050;11.036;2024-02-26T09:51:12;5.45;;;4.97;;
5058;SDS011;2548;52.050;11.036;2024-02-26T09:53:41;4.97;;;4.47;;
5058;SDS011;2548;52.050;11.036;2024-02-26T09:56:11;5.18;;;4.78;;
5058;SDS011;2548;52.050;11.036;2024-02-26T09:58:39;4.28;;;3.88;;
5058;SDS011;2548;52.050;11.036;2024-02-26T10:01:12;4.45;;;4.15;;
5058;SDS011;2548;52.050;11.036;2024-02-26T10:03:43;5.47;;;5.15;;
5058;SDS011;2548;52.050;11.036;2024-02-26T10:06:14;6.07;;;5.55;;
5058;SDS011;2548;52.050;11.036;2024-02-26T10:08:42;5.32;;;4.93;;
5058;SDS011;2548;52.050;11.036;2024-02-26T10:11:11;5.60;;;4.80;;
5058;SDS011;2548;52.050;11.036;2024-02-26T10:13:40;10.88;;;6.22;;
5058;SDS011;2548;52.050;11.036;2024-02-26T10:16:07;8.23;;;6.65;;
5058;SDS011;2548;52.050;11.036;2024-02-26T10:18:46;7.05;;;6.30;;
5058;SDS011;2548;52.050;11.036;2024-02-26T10:21:15;7.40;;;6.60;;
5058;SDS011;2548;52.050;11.036;2024-02-26T10:23:44;14.07;;;7.95;;
5058;SDS011;2548;52.050;11.036;2024-02-26T10:26:13;10.55;;;7.93;;
5058;SDS011;2548;52.050;11.036;2024-02-26T10:28:42;8.95;;;7.55;;
5058;SDS011;2548;52.050;11.036;2024-02-26T10:31:13;13.95;;;8.52;;
5058;SDS011;2548;52.050;11.036;2024-02-26T10:33:42;13.98;;;10.05;;
5058;SDS011;2548;52.050;11.036;2024-02-26T10:36:12;9.88;;;8.85;;
5058;SDS011;2548;52.050;11.036;2024-02-26T10:38:39;16.83;;;14.52;;
5058;SDS011;2548;52.050;11.036;2024-02-26T10:41:12;14.00;;;11.90;;
5058;SDS011;2548;52.050;11.036;2024-02-26T10:43:41;15.20;;;9.77;;
5058;SDS011;2548;52.050;11.036;2024-02-26T10:46:09;15.48;;;10.48;;
5058;SDS011;2548;52.050;11.036;2024-02-26T10:48:37;12.00;;;9.20;;
5058;SDS011;2548;52.050;11.036;2024-02-26T10:51:05;16.23;;;11.45;;
5058;SDS011;2548;52.050;11.036;2024-02-26T10:53:35;19.10;;;10.60;;
5058;SDS011;2548;52.050;11.036;2024-02-26T10:56:04;19.17;;;10.93;;
5058;SDS011;2548;52.050;11.036;2024-02-26T10:58:32;13.25;;;10.10;;
5058;SDS011;2548;52.050;11.036;2024-02-26T11:01:01;13.60;;;10.63;;
5058;SDS011;2548;52.050;11.036;2024-02-26T11:03:30;11.10;;;9.82;;
5058;SDS011;2548;52.050;11.036;2024-02-26T11:06:00;12.18;;;9.82;;
5058;SDS011;2548;52.050;11.036;2024-02-26T11:08:28;11.85;;;9.93;;
5058;SDS011;2548;52.050;11.036;2024-02-26T11:11:00;11.75;;;9.80;;
5058;SDS011;2548;52.050;11.036;2024-02-26T11:13:28;12.80;;;9.65;;
5058;SDS011;2548;52.050;11.036;2024-02-26T11:15:58;11.00;;;9.10;;
5058;SDS011;2548;52.050;11.036;2024-02-26T11:18:27;12.80;;;9.00;;
5058;SDS011;2548;52.050;11.036;2024-02-26T11:20:55;15.02;;;9.10;;
5058;SDS011;2548;52.050;11.036;2024-02-26T11:23:23;10.45;;;8.43;;
5058;SDS011;2548;52.050;11.036;2024-02-26T11:25:51;13.25;;;10.50;;
5058;SDS011;2548;52.050;11.036;2024-02-26T11:28:24;12.35;;;9.65;;
5058;SDS011;2548;52.050;11.036;2024-02-26T11:30:53;10.15;;;8.95;;
5058;SDS011;2548;52.050;11.036;2024-02-26T11:33:22;11.65;;;10.05;;
5058;SDS011;2548;52.050;11.036;2024-02-26T11:35:51;11.68;;;9.45;;
5058;SDS011;2548;52.050;11.036;2024-02-26T11:38:19;10.82;;;9.10;;
5058;SDS011;2548;52.050;11.036;2024-02-26T11:40:48;14.95;;;8.70;;
5058;SDS011;2548;52.050;11.036;2024-02-26T11:43:16;12.02;;;9.15;;
5058;SDS011;2548;52.050;11.036;2024-02-26T11:45:49;10.18;;;9.18;;
5058;SDS011;2548;52.050;11.036;2024-02-26T11:48:25;12.60;;;9.15;;
5058;SDS011;2548;52.050;11.036;2024-02-26T11:50:55;15.77;;;9.80;;
5058;SDS011;2548;52.050;11.036;2024-02-26T11:53:25;16.33;;;9.20;;
5058;SDS011;2548;52.050;11.036;2024-02-26T11:58:59;19.40;;;10.05;;
5058;SDS011;2548;52.050;11.036;2024-02-26T12:01:45;11.70;;;9.88;;
5058;SDS011;2548;52.050;11.036;2024-02-26T12:04:17;12.30;;;8.85;;
5058;SDS011;2548;52.050;11.036;2024-02-26T12:06:48;13.23;;;9.57;;
5058;SDS011;2548;52.050;11.036;2024-02-26T12:09:31;11.25;;;9.70;;
5058;SDS011;2548;52.050;11.036;2024-02-26T12:11:58;11.13;;;9.00;;
5058;SDS011;2548;52.050;11.036;2024-02-26T12:14:27;13.85;;;9.18;;
5058;SDS011;2548;52.050;11.036;2024-02-26T12:16:56;13.23;;;9.68;;
5058;SDS011;2548;52.050;11.036;2024-02-26T12:19:24;13.93;;;10.32;;
5058;SDS011;2548;52.050;11.036;2024-02-26T12:21:52;16.90;;;10.68;;
5058;SDS011;2548;52.050;11.036;2024-02-26T12:24:21;12.30;;;9.60;;
5058;SDS011;2548;52.050;11.036;2024-02-26T12:26:48;16.00;;;9.85;;
5058;SDS011;2548;52.050;11.036;2024-02-26T12:29:16;13.82;;;9.88;;
5058;SDS011;2548;52.050;11.036;2024-02-26T12:31:44;11.10;;;8.82;;
5058;SDS011;2548;52.050;11.036;2024-02-26T12:34:13;14.15;;;9.70;;
5058;SDS011;2548;52.050;11.036;2024-02-26T12:36:42;13.07;;;9.38;;
5058;SDS011;2548;52.050;11.036;2024-02-26T12:39:11;16.65;;;10.45;;
5058;SDS011;2548;52.050;11.036;2024-02-26T12:41:38;13.05;;;9.55;;
5058;SDS011;2548;52.050;11.036;2024-02-26T12:44:07;15.38;;;9.50;;
5058;SDS011;2548;52.050;11.036;2024-02-26T12:46:35;10.85;;;9.75;;
5058;SDS011;2548;52.050;11.036;2024-02-26T12:49:05;11.10;;;9.65;;
5058;SDS011;2548;52.050;11.036;2024-02-26T12:51:34;15.40;;;9.95;;
5058;SDS011;2548;52.050;11.036;2024-02-26T12:54:02;10.13;;;8.93;;
5058;SDS011;2548;52.050;11.036;2024-02-26T12:56:30;14.35;;;9.35;;
5058;SDS011;2548;52.050;11.036;2024-02-26T12:58:58;11.90;;;9.35;;
5058;SDS011;2548;52.050;11.036;2024-02-26T13:01:26;14.07;;;9.98;;
5058;SDS011;2548;52.050;11.036;2024-02-26T13:03:56;11.02;;;8.50;;
5058;SDS011;2548;52.050;11.036;2024-02-26T13:06:24;11.40;;;9.25;;
5058;SDS011;2548;52.050;11.036;2024-02-26T13:08:57;12.02;;;8.88;;
5058;SDS011;2548;52.050;11.036;2024-02-26T13:11:25;11.80;;;9.63;;
5058;SDS011;2548;52.050;11.036;2024-02-26T13:13:54;13.52;;;10.30;;
5058;SDS011;2548;52.050;11.036;2024-02-26T13:16:24;12.20;;;10.23;;
5058;SDS011;2548;52.050;11.036;2024-02-26T13:18:52;17.33;;;11.52;;
5058;SDS011;2548;52.050;11.036;2024-02-26T13:21:19;36.38;;;10.52;;
5058;SDS011;2548;52.050;11.036;2024-02-26T13:23:48;15.70;;;10.82;;
5058;SDS011;2548;52.050;11.036;2024-02-26T13:26:21;11.68;;;9.30;;
5058;SDS011;2548;52.050;11.036;2024-02-26T13:28:58;15.15;;;10.02;;
5058;SDS011;2548;52.050;11.036;2024-02-26T13:31:27;21.05;;;10.00;;
5058;SDS011;2548;52.050;11.036;2024-02-26T13:33:54;15.35;;;11.50;;
5058;SDS011;2548;52.050;11.036;2024-02-26T13:36:22;15.55;;;10.93;;
5058;SDS011;2548;52.050;11.036;2024-02-26T13:38:53;13.95;;;9.90;;
5058;SDS011;2548;52.050;11.036;2024-02-26T13:41:22;18.73;;;11.77;;
5058;SDS011;2548;52.050;11.036;2024-02-26T13:43:50;12.88;;;10.32;;
5058;SDS011;2548;52.050;11.036;2024-02-26T13:46:18;16.27;;;11.50;;
5058;SDS011;2548;52.050;11.036;2024-02-26T13:48:46;17.33;;;12.75;;
5058;SDS011;2548;52.050;11.036;2024-02-26T13:51:14;16.40;;;11.90;;
5058;SDS011;2548;52.050;11.036;2024-02-26T13:53:42;14.30;;;11.55;;
5058;SDS011;2548;52.050;11.036;2024-02-26T13:56:10;11.48;;;9.95;;
5058;SDS011;2548;52.050;11.036;2024-02-26T13:58:40;14.65;;;11.05;;
5058;SDS011;2548;52.050;11.036;2024-02-26T14:01:08;21.20;;;12.00;;
5058;SDS011;2548;52.050;11.036;2024-02-26T14:03:35;15.45;;;12.45;;
5058;SDS011;2548;52.050;11.036;2024-02-26T14:06:03;18.92;;;13.20;;
5058;SDS011;2548;52.050;11.036;2024-02-26T14:08:31;16.90;;;10.88;;
5058;SDS011;2548;52.050;11.036;2024-02-26T14:10:59;13.35;;;10.40;;
5058;SDS011;2548;52.050;11.036;2024-02-26T14:13:27;14.00;;;10.68;;
5058;SDS011;2548;52.050;11.036;2024-02-26T14:15:56;10.85;;;9.63;;
5058;SDS011;2548;52.050;11.036;2024-02-26T14:18:24;19.38;;;10.70;;
5058;SDS011;2548;52.050;11.036;2024-02-26T14:20:53;12.95;;;10.20;;
5058;SDS011;2548;52.050;11.036;2024-02-26T14:23:20;13.10;;;10.45;;
5058;SDS011;2548;52.050;11.036;2024-02-26T14:25:48;13.82;;;11.27;;
5058;SDS011;2548;52.050;11.036;2024-02-26T14:28:16;12.38;;;10.13;;
5058;SDS011;2548;52.050;11.036;2024-02-26T14:30:44;15.43;;;11.77;;
5058;SDS011;2548;52.050;11.036;2024-02-26T14:33:13;11.23;;;10.02;;
5058;SDS011;2548;52.050;11.036;2024-02-26T14:35:40;14.10;;;10.70;;
5058;SDS011;2548;52.050;11.036;2024-02-26T14:38:08;12.00;;;10.75;;
5058;SDS011;2548;52.050;11.036;2024-02-26T14:40:36;13.45;;;11.90;;
5058;SDS011;2548;52.050;11.036;2024-02-26T14:43:03;15.48;;;10.85;;
5058;SDS011;2548;52.050;11.036;2024-02-26T14:45:31;11.60;;;10.48;;
5058;SDS011;2548;52.050;11.036;2024-02-26T14:47:59;11.73;;;10.55;;
5058;SDS011;2548;52.050;11.036;2024-02-26T14:50:29;17.23;;;11.68;;
5058;SDS011;2548;52.050;11.036;2024-02-26T14:52:56;12.82;;;10.27;;
5058;SDS011;2548;52.050;11.036;2024-02-26T14:55:26;14.65;;;11.25;;
5058;SDS011;2548;52.050;11.036;2024-02-26T14:57:53;15.80;;;11.07;;
5058;SDS011;2548;52.050;11.036;2024-02-26T15:00:21;16.13;;;10.73;;
5058;SDS011;2548;52.050;11.036;2024-02-26T15:02:48;15.82;;;11.88;;
5058;SDS011;2548;52.050;11.036;2024-02-26T15:05:17;16.83;;;11.40;;
5058;SDS011;2548;52.050;11.036;2024-02-26T15:07:47;12.80;;;9.00;;
5058;SDS011;2548;52.050;11.036;2024-02-26T15:10:15;18.88;;;11.55;;
5058;SDS011;2548;52.050;11.036;2024-02-26T15:12:42;16.40;;;12.10;;
5058;SDS011;2548;52.050;11.036;2024-02-26T15:15:10;13.73;;;10.85;;
5058;SDS011;2548;52.050;11.036;2024-02-26T15:17:38;15.75;;;11.07;;
5058;SDS011;2548;52.050;11.036;2024-02-26T15:20:06;11.60;;;10.40;;
5058;SDS011;2548;52.050;11.036;2024-02-26T15:22:36;19.20;;;11.98;;
5058;SDS011;2548;52.050;11.036;2024-02-26T15:25:06;14.80;;;12.20;;
5058;SDS011;2548;52.050;11.036;2024-02-26T15:27:34;17.20;;;13.02;;
5058;SDS011;2548;52.050;11.036;2024-02-26T15:30:02;17.58;;;12.48;;
5058;SDS011;2548;52.050;11.036;2024-02-26T15:32:30;16.27;;;12.20;;